Pagrindinis puslapis
METAR-TAF:

METAR-TAF

Oro uostai :

Hermosillo, Meksika

platuma: 29-04N, ilguma: 110-57W, Aukštis: 211 m

Dabartinis oras

Ataskaita buvo paskelbta 41 minutes, ne 01:40 UTC
Vėjas 8 kt iš Vakarų/Pietvakarių
Temperatūra 26°C
Drėgmė 32%
Slėgis 1015 hPa
Matomumas: 16.1 km
Giedras dangus

METAR: MMHO 080140Z 24008KT 10SM SKC 26/08 A2998 RMK ISOL CU HZY

Laikas: 19:21 (02:21 UTC)

Prognozė

Ataskaita buvo paskelbta 9 valandos ir 0 minutes, ne 17:21 UTC
Prognozė galioja nuo 07 metu 18 UTC su 08 metu 18 UTC
Vėjas 12 kt iš Pietvakarių
Matomumas: 10 km
Giedras dangus
Nuo 08 metu 0300 UTC
Vėjas kt iš Šiaurės
Matomumas: 10 km
Giedras dangus
Nuo 08 metu 1500 UTC
Vėjas 10 kt iš Rytų/Pietryčių
Matomumas: 10 km
Giedras dangus

TAF: MMHO 071721Z 0718/0818 23012KT P6SM SKC FM080300 00000KT P6SM SKC FM081500 12010KT P6SM SKC

Orai ataskaitas ir orų prognozės (METAR, TAF).

turimą stotys yra geltonos ir raudonos taškus žemėlapyje.

Perkelti pele per norėdami pamatyti stoties vardą.

Tada spustelėkite, norėdami matyti oro stebėjimo ir prognozės.

Norėdami pakeisti žemėlapį: spustelėkite ant žalios mygtukų su juodo kryžiaus žemyn,; žalią mygtuką su brūkšneliu, jei norite nutolinti; arba žalių rodyklių gretimoms žemėlapius.


METAR-TAF: